Terminal Aerodrome Forecast
Issued by NWS Blacksburg, VA

Current Version | Previous Version | Graphics & Text | Print | Product List | Glossary On
Versions: 1 2 3 4 5 6 7 8 9 10 11 12 13 14 15 16 17 18 19 20 21 22 23 24 25 26 27 28 29 30 31 32 33 34 35 36 37 38 39 40 41 42 43 44 45 46 47 48 49 50
000
FTUS41 KRNK 280125 AAA
TAFBLF
TAF AMD
KBLF 280125Z 2801/2824 32011G21KT 4SM -SN SCT012 OVC030
      TEMPO 2801/2805 2SM -SN BR OVC012
     FM280700 32010G20KT P6SM OVC025
     FM281400 31012G22KT P6SM BKN030
     FM281700 31011G21KT P6SM SCT030=

USA.gov is the U.S. government's official web portal to all federal, state and local government web resources and services.